Abidjan/Port Bouet Airport

Airport
ICAO code: 
DIAP
IATA Code: 
ABJ
Summary
ICAO Region: 
AFI
Territory: 
Location: 
Port Bouet, Abidjan
Serving: 
Abidjan
Elevation: 
95 ft
Coordinates: 
Aerial View: 
5° 15' 40.99" N, 3° 55' 34.66" W
Metar
Observation
DIAP 080400Z 14003KT 9999 SCT013 27/25 Q1010 NOSIG
Station
Abidjan
Date/Time
2021-12-08 04:00:00
Wind direction
140°
Wind speed
03 kts
Lowest cloud amount
scattered clouds
Temperature
27°C
Dew point
25°C
Humidity
88%
QNH
1010 hPa
Weather condition
n/a

International airport serving the capital of the Ivory Coast.

Climatology

Tropical Monsoon climate (Köppen climate classification Am)

Runways

Designator Length Width Surface Rops
3/21 3000 50 ASP Yes/Yes
Airport map: 
Aerial View: 

Accidents and Serious Incidents at or in the vicinity of DIAP

SKYbrary Partners:

Safety knowledge contributed by: